createdAt,value
2019-03-22T00:00:51.870Z,6.06
2019-03-22T00:01:51.859Z,6.05
2019-03-22T00:02:51.846Z,6.05
2019-03-22T00:03:51.836Z,6.03
2019-03-22T00:04:51.836Z,6.01
2019-03-22T00:05:51.815Z,6.02
2019-03-22T00:06:51.805Z,6.02
2019-03-22T00:07:51.794Z,6.02
2019-03-22T00:08:51.784Z,6.06
2019-03-22T00:09:51.771Z,6.03
2019-03-22T00:12:51.741Z,5.92
2019-03-22T00:13:51.727Z,5.87
2019-03-22T00:14:51.718Z,5.83
2019-03-22T00:15:51.710Z,5.80
2019-03-22T00:16:51.698Z,5.80
2019-03-22T00:17:51.686Z,5.81
2019-03-22T00:18:51.678Z,5.83
2019-03-22T00:19:51.666Z,5.83
2019-03-22T00:20:51.654Z,5.83
2019-03-22T00:21:51.649Z,5.80
2019-03-22T00:22:51.634Z,5.75
2019-03-22T00:23:51.620Z,5.70
2019-03-22T00:24:51.614Z,5.69
2019-03-22T00:25:51.600Z,5.63
2019-03-22T00:26:51.588Z,5.60
2019-03-22T00:27:51.577Z,5.60
2019-03-22T00:28:51.569Z,5.58
2019-03-22T00:29:51.558Z,5.55
2019-03-22T00:30:51.546Z,5.50
2019-03-22T00:31:51.536Z,5.48
2019-03-22T00:32:53.995Z,5.47
2019-03-22T00:33:51.514Z,5.50
2019-03-22T00:34:51.507Z,5.48
2019-03-22T00:35:51.491Z,5.52
2019-03-22T00:36:51.482Z,5.58
2019-03-22T00:37:51.469Z,5.60
2019-03-22T00:38:51.460Z,5.60
2019-03-22T00:39:51.450Z,5.60
2019-03-22T00:40:51.441Z,5.62
2019-03-22T00:41:51.429Z,5.62
2019-03-22T00:42:51.420Z,5.63
2019-03-22T00:43:51.414Z,5.65
2019-03-22T00:44:51.396Z,5.65
2019-03-22T00:45:51.383Z,5.63
2019-03-22T00:46:51.373Z,5.65
2019-03-22T00:47:51.369Z,5.63
2019-03-22T00:48:51.353Z,5.60
2019-03-22T00:49:51.340Z,5.59
2019-03-22T00:50:51.330Z,5.58
2019-03-22T00:51:51.322Z,5.55
2019-03-22T00:52:51.313Z,5.55
2019-03-22T00:53:51.299Z,5.52
2019-03-22T00:54:51.286Z,5.47
2019-03-22T00:55:51.282Z,5.40
2019-03-22T00:56:51.267Z,5.32
2019-03-22T00:57:51.256Z,5.25
2019-03-22T00:58:51.245Z,5.22
2019-03-22T00:59:51.233Z,5.19
2019-03-22T01:00:52.466Z,5.16
2019-03-22T01:01:51.214Z,5.14
2019-03-22T01:02:51.202Z,5.13
2019-03-22T01:03:51.192Z,5.10
2019-03-22T01:04:51.187Z,5.10
2019-03-22T01:05:51.169Z,5.08
2019-03-22T01:06:51.160Z,5.08
2019-03-22T01:07:51.149Z,5.10
2019-03-22T01:08:51.139Z,5.11
2019-03-22T01:09:51.126Z,5.13
2019-03-22T01:10:51.115Z,5.14
2019-03-22T01:11:51.106Z,5.16
2019-03-22T01:12:51.097Z,5.19
2019-03-22T01:13:51.085Z,5.22
2019-03-22T01:14:51.077Z,5.22
2019-03-22T01:15:51.065Z,5.22
2019-03-22T01:16:51.053Z,5.23
2019-03-22T01:17:51.041Z,5.22
2019-03-22T01:18:51.030Z,5.23
2019-03-22T01:19:51.023Z,5.25
2019-03-22T01:20:51.007Z,5.23
2019-03-22T01:21:50.998Z,5.22
2019-03-22T01:22:50.989Z,5.21
2019-03-22T01:23:50.977Z,5.21
2019-03-22T01:24:50.967Z,5.19
2019-03-22T01:25:50.955Z,5.19
2019-03-22T01:26:50.948Z,5.18
2019-03-22T01:27:50.933Z,5.14
2019-03-22T01:28:50.924Z,5.13
2019-03-22T01:29:50.911Z,5.11
2019-03-22T01:30:50.901Z,5.11
2019-03-22T01:31:50.894Z,5.10
2019-03-22T01:32:50.880Z,5.07
2019-03-22T01:33:50.869Z,5.05
2019-03-22T01:34:50.864Z,5.05
2019-03-22T01:35:50.848Z,5.04
2019-03-22T01:36:50.836Z,5.03
2019-03-22T01:37:50.827Z,5.01
2019-03-22T01:38:50.813Z,4.98
2019-03-22T01:39:50.806Z,4.98
2019-03-22T01:40:50.795Z,4.96
2019-03-22T01:41:50.788Z,4.93
2019-03-22T01:42:50.771Z,4.92
2019-03-22T01:43:50.763Z,4.92
2019-03-22T01:44:50.751Z,4.90
2019-03-22T01:45:50.741Z,4.86
2019-03-22T01:46:50.730Z,4.85
2019-03-22T01:47:50.725Z,4.85
2019-03-22T01:48:50.708Z,4.85
2019-03-22T01:49:50.700Z,4.85
2019-03-22T01:50:50.685Z,4.85
2019-03-22T01:51:50.674Z,4.85
2019-03-22T01:52:50.665Z,4.86
2019-03-22T01:53:50.653Z,4.85
2019-03-22T01:54:50.645Z,4.86
2019-03-22T01:55:50.632Z,4.86
2019-03-22T01:56:50.627Z,4.85
2019-03-22T01:57:53.547Z,4.83
2019-03-22T01:58:50.601Z,4.85
2019-03-22T01:59:50.590Z,4.85
2019-03-22T02:00:50.579Z,4.85
2019-03-22T02:01:50.567Z,4.85
2019-03-22T02:02:50.558Z,4.86
2019-03-22T02:03:50.546Z,4.89
2019-03-22T02:04:50.537Z,4.89
2019-03-22T02:05:50.525Z,4.87
2019-03-22T02:06:50.512Z,4.85
2019-03-22T02:07:50.503Z,4.80
2019-03-22T02:08:50.500Z,4.79
2019-03-22T02:09:50.480Z,4.80
2019-03-22T02:10:50.471Z,4.77
2019-03-22T02:11:50.459Z,4.77
2019-03-22T02:12:50.447Z,4.75
2019-03-22T02:13:50.438Z,4.75
2019-03-22T02:14:50.427Z,4.75
2019-03-22T02:15:50.420Z,4.72
2019-03-22T02:16:50.409Z,4.74
2019-03-22T02:17:50.398Z,4.72
2019-03-22T02:18:50.393Z,4.71
2019-03-22T02:19:50.373Z,4.69
2019-03-22T02:20:50.365Z,4.67
2019-03-22T02:21:50.352Z,4.67
2019-03-22T02:22:50.341Z,4.65
2019-03-22T02:23:52.186Z,4.64
2019-03-22T02:24:50.321Z,4.62
2019-03-22T02:25:50.314Z,4.64
2019-03-22T02:26:50.301Z,4.62
2019-03-22T02:27:50.290Z,4.64
2019-03-22T02:28:50.278Z,4.61
2019-03-22T02:29:50.271Z,4.61
2019-03-22T02:30:50.267Z,4.57
2019-03-22T02:31:50.245Z,4.53
2019-03-22T02:32:50.238Z,4.51
2019-03-22T02:33:50.224Z,4.56
2019-03-22T02:34:50.216Z,4.56
2019-03-22T02:35:50.205Z,4.53
2019-03-22T02:36:50.193Z,4.54
2019-03-22T02:37:50.182Z,4.54
2019-03-22T02:38:50.169Z,4.56
2019-03-22T02:39:50.160Z,4.59
2019-03-22T02:40:50.153Z,4.61
2019-03-22T02:41:50.142Z,4.61
2019-03-22T02:42:50.134Z,4.59
2019-03-22T02:43:50.117Z,4.59
2019-03-22T02:44:50.107Z,4.61
2019-03-22T02:45:50.096Z,4.57
2019-03-22T02:46:50.084Z,4.57
2019-03-22T02:47:50.074Z,4.53
2019-03-22T02:48:50.104Z,4.49
2019-03-22T02:49:50.053Z,4.46
2019-03-22T02:50:50.042Z,4.43
2019-03-22T02:51:50.030Z,4.43
2019-03-22T02:52:50.022Z,4.43
2019-03-22T02:53:50.012Z,4.42
2019-03-22T02:54:49.999Z,4.43
2019-03-22T02:55:50.039Z,4.42
2019-03-22T02:56:50.181Z,4.43
2019-03-22T02:57:49.969Z,4.42
2019-03-22T02:58:49.954Z,4.38
2019-03-22T02:59:49.948Z,4.32
2019-03-22T03:00:49.932Z,4.26
2019-03-22T03:01:49.923Z,4.20
2019-03-22T03:02:49.926Z,4.20
2019-03-22T03:03:49.901Z,4.21
2019-03-22T03:04:49.892Z,4.21
2019-03-22T03:05:49.878Z,4.21
2019-03-22T03:06:49.870Z,4.21
2019-03-22T03:07:49.898Z,4.24
2019-03-22T03:08:49.846Z,4.24
2019-03-22T03:09:49.841Z,4.20
2019-03-22T03:10:49.829Z,4.18
2019-03-22T03:11:49.815Z,4.17
2019-03-22T03:12:49.807Z,4.17
2019-03-22T03:13:49.801Z,4.13
2019-03-22T03:14:49.785Z,4.14
2019-03-22T03:15:49.772Z,4.13
2019-03-22T03:16:49.761Z,4.16
2019-03-22T03:17:49.755Z,4.18
2019-03-22T03:18:49.742Z,4.17
2019-03-22T03:19:49.733Z,4.14
2019-03-22T03:20:49.726Z,4.14
2019-03-22T03:21:49.709Z,4.13
2019-03-22T03:22:49.706Z,4.06
2019-03-22T03:23:49.687Z,4.03
2019-03-22T03:24:49.687Z,4.01
2019-03-22T03:25:49.666Z,3.99
2019-03-22T03:26:49.653Z,3.99
2019-03-22T03:27:49.642Z,3.98
2019-03-22T03:28:49.631Z,3.97
2019-03-22T03:29:49.622Z,3.95
2019-03-22T03:30:49.618Z,3.97
2019-03-22T03:31:49.600Z,3.98
2019-03-22T03:32:49.592Z,4.03
2019-03-22T03:33:49.578Z,4.03
2019-03-22T03:34:49.595Z,4.03
2019-03-22T03:35:49.556Z,4.01
2019-03-22T03:36:49.552Z,4.01
2019-03-22T03:37:49.539Z,3.99
2019-03-22T03:38:49.529Z,3.98
2019-03-22T03:39:49.511Z,3.99
2019-03-22T03:40:49.510Z,3.97
2019-03-22T03:41:49.490Z,4.01
2019-03-22T03:42:49.514Z,3.99
2019-03-22T03:43:49.473Z,3.95
2019-03-22T03:44:49.459Z,3.91
2019-03-22T03:45:49.447Z,3.94
2019-03-22T03:46:49.443Z,3.95
2019-03-22T03:47:49.427Z,3.95
2019-03-22T03:48:49.416Z,3.95
2019-03-22T03:49:49.403Z,3.94
2019-03-22T03:50:49.403Z,3.94
2019-03-22T03:51:49.381Z,3.94
2019-03-22T03:52:49.371Z,3.91
2019-03-22T03:53:49.361Z,3.89
2019-03-22T03:54:49.353Z,3.91
2019-03-22T03:55:49.346Z,3.92
2019-03-22T03:56:49.331Z,3.97
2019-03-22T03:57:49.318Z,3.98
2019-03-22T03:58:52.691Z,3.98
2019-03-22T03:59:49.294Z,3.97
2019-03-22T04:00:49.299Z,3.95
2019-03-22T04:01:49.272Z,3.95
2019-03-22T04:02:49.264Z,3.95
2019-03-22T04:03:49.252Z,3.95
2019-03-22T04:04:49.239Z,3.94
2019-03-22T04:05:49.232Z,3.91
2019-03-22T04:06:49.224Z,3.87
2019-03-22T04:07:49.210Z,3.85
2019-03-22T04:08:49.199Z,3.81
2019-03-22T04:09:49.190Z,3.77
2019-03-22T04:10:49.178Z,3.76
2019-03-22T04:11:49.169Z,3.74
2019-03-22T04:12:49.154Z,3.74
2019-03-22T04:13:49.143Z,3.77
2019-03-22T04:14:49.131Z,3.77
2019-03-22T04:15:49.121Z,3.77
2019-03-22T04:16:49.114Z,3.79
2019-03-22T04:17:49.100Z,3.77
2019-03-22T04:18:49.090Z,3.77
2019-03-22T04:19:49.080Z,3.76
2019-03-22T04:20:49.067Z,3.76
2019-03-22T04:21:49.058Z,3.80
2019-03-22T04:22:49.047Z,3.80
2019-03-22T04:23:49.041Z,3.80
2019-03-22T04:24:49.029Z,3.80
2019-03-22T04:25:49.013Z,3.81
2019-03-22T04:26:49.004Z,3.80
2019-03-22T04:27:48.996Z,3.76
2019-03-22T04:28:48.979Z,3.74
2019-03-22T04:29:48.970Z,3.74
2019-03-22T04:30:48.959Z,3.73
2019-03-22T04:31:48.950Z,3.71
2019-03-22T04:32:48.939Z,3.70
2019-03-22T04:33:48.928Z,3.70
2019-03-22T04:34:48.915Z,3.71
2019-03-22T04:35:48.905Z,3.69
2019-03-22T04:36:48.895Z,3.70
2019-03-22T04:37:48.889Z,3.69
2019-03-22T04:38:48.877Z,3.67
2019-03-22T04:39:48.861Z,3.63
2019-03-22T04:40:48.850Z,3.59
2019-03-22T04:41:48.839Z,3.58
2019-03-22T04:42:48.830Z,3.61
2019-03-22T04:43:48.820Z,3.61
2019-03-22T04:44:48.807Z,3.56
2019-03-22T04:45:48.795Z,3.56
2019-03-22T04:46:48.787Z,3.53
2019-03-22T04:47:48.776Z,3.51
2019-03-22T04:48:48.764Z,3.51
2019-03-22T04:49:48.753Z,3.45
2019-03-22T04:50:48.743Z,3.45
2019-03-22T04:51:48.733Z,3.48
2019-03-22T04:52:48.719Z,3.49
2019-03-22T04:53:48.710Z,3.51
2019-03-22T04:54:48.699Z,3.52
2019-03-22T04:55:48.687Z,3.55
2019-03-22T04:56:48.680Z,3.55
2019-03-22T04:57:48.667Z,3.58
2019-03-22T04:58:48.655Z,3.58
2019-03-22T04:59:48.644Z,3.55
2019-03-22T05:00:48.635Z,3.52
2019-03-22T05:01:48.623Z,3.51
2019-03-22T05:02:48.613Z,3.51
2019-03-22T05:03:48.602Z,3.49
2019-03-22T05:04:48.593Z,3.45
2019-03-22T05:05:48.578Z,3.48
2019-03-22T05:06:48.567Z,3.48
2019-03-22T05:07:48.558Z,3.45
2019-03-22T05:08:48.546Z,3.43
2019-03-22T05:09:48.535Z,3.44
2019-03-22T05:10:48.525Z,3.43
2019-03-22T05:11:48.517Z,3.41
2019-03-22T05:12:48.500Z,3.40
2019-03-22T05:13:48.499Z,3.38
2019-03-22T05:14:48.484Z,3.37
2019-03-22T05:15:48.471Z,3.40
2019-03-22T05:16:48.458Z,3.40
2019-03-22T05:17:48.449Z,3.40
2019-03-22T05:18:48.441Z,3.43
2019-03-22T05:19:48.426Z,3.41
2019-03-22T05:20:48.420Z,3.43
2019-03-22T05:21:48.418Z,3.41
2019-03-22T05:22:48.394Z,3.43
2019-03-22T05:23:48.384Z,3.40
2019-03-22T05:24:48.373Z,3.38
2019-03-22T05:25:48.364Z,3.34
2019-03-22T05:26:48.351Z,3.35
2019-03-22T05:27:48.338Z,3.31
2019-03-22T05:28:48.329Z,3.33
2019-03-22T05:29:48.320Z,3.33
2019-03-22T05:30:48.313Z,3.30
2019-03-22T05:31:48.299Z,3.31
2019-03-22T05:32:48.288Z,3.34
2019-03-22T05:33:48.277Z,3.34
2019-03-22T05:34:48.265Z,3.34
2019-03-22T05:35:48.257Z,3.30
2019-03-22T05:36:48.241Z,3.31
2019-03-22T05:37:48.239Z,3.34
2019-03-22T05:38:48.225Z,3.33
2019-03-22T05:39:48.212Z,3.34
2019-03-22T05:40:48.202Z,3.34
2019-03-22T05:41:48.200Z,3.35
2019-03-22T05:42:48.178Z,3.37
2019-03-22T05:43:48.168Z,3.38
2019-03-22T05:44:48.158Z,3.41
2019-03-22T05:45:48.145Z,3.38
2019-03-22T05:46:49.032Z,3.38
2019-03-22T05:47:48.123Z,3.41
2019-03-22T05:48:48.114Z,3.43
2019-03-22T05:49:48.101Z,3.48
2019-03-22T05:50:48.090Z,3.51
2019-03-22T05:51:48.080Z,3.52
2019-03-22T05:52:48.072Z,3.53
2019-03-22T05:53:48.062Z,3.56
2019-03-22T05:54:48.051Z,3.61
2019-03-22T05:55:48.036Z,3.63
2019-03-22T05:56:48.027Z,3.69
2019-03-22T05:57:48.017Z,3.79
2019-03-22T05:58:48.007Z,3.85
2019-03-22T05:59:47.992Z,3.87
2019-03-22T06:00:47.982Z,3.87
2019-03-22T06:01:47.974Z,3.83
2019-03-22T06:02:47.962Z,3.87
2019-03-22T06:03:47.949Z,3.91
2019-03-22T06:04:47.941Z,3.89
2019-03-22T06:05:47.930Z,3.89
2019-03-22T06:06:47.923Z,3.95
2019-03-22T06:07:47.909Z,4.06
2019-03-22T06:08:47.901Z,4.18
2019-03-22T06:09:47.887Z,4.25
2019-03-22T06:10:47.875Z,4.32
2019-03-22T06:11:47.864Z,4.36
2019-03-22T06:12:47.855Z,4.32
2019-03-22T06:13:47.845Z,4.39
2019-03-22T06:14:47.832Z,4.47
2019-03-22T06:15:47.828Z,4.53
2019-03-22T06:16:47.812Z,4.62
2019-03-22T06:17:51.951Z,4.65
2019-03-22T06:18:50.276Z,4.65
2019-03-22T06:19:47.780Z,4.62
2019-03-22T06:20:47.767Z,4.65
2019-03-22T06:21:47.756Z,4.69
2019-03-22T06:22:47.749Z,4.74
2019-03-22T06:23:47.737Z,4.75
2019-03-22T06:24:47.724Z,4.79
2019-03-22T06:25:47.713Z,4.77
2019-03-22T06:26:47.704Z,4.83
2019-03-22T06:27:47.695Z,5.00
2019-03-22T06:28:47.682Z,5.01
2019-03-22T06:29:54.162Z,5.04
2019-03-22T06:30:48.677Z,5.16
2019-03-22T06:31:47.651Z,5.28
2019-03-22T06:32:47.639Z,5.40
2019-03-22T06:33:47.627Z,5.47
2019-03-22T06:34:47.618Z,5.56
2019-03-22T06:35:47.607Z,5.59
2019-03-22T06:36:47.596Z,5.65
2019-03-22T06:37:47.587Z,5.67
2019-03-22T06:38:47.576Z,5.74
2019-03-22T06:39:47.597Z,5.88
2019-03-22T06:40:47.634Z,6.03
2019-03-22T06:41:47.541Z,6.10
2019-03-22T06:42:47.531Z,6.19
2019-03-22T06:43:47.520Z,6.27
2019-03-22T06:44:47.510Z,6.42
2019-03-22T06:45:47.500Z,6.63
2019-03-22T06:46:47.487Z,6.74
2019-03-22T06:47:47.481Z,6.75
2019-03-22T06:48:47.469Z,6.64
2019-03-22T06:49:47.456Z,6.59
2019-03-22T06:50:47.449Z,6.47
2019-03-22T06:51:47.435Z,6.52
2019-03-22T06:52:47.423Z,6.63
2019-03-22T06:53:47.415Z,6.63
2019-03-22T06:54:47.403Z,6.75
2019-03-22T06:55:47.392Z,6.82
2019-03-22T06:56:47.382Z,6.92
2019-03-22T06:57:47.376Z,6.88
2019-03-22T06:58:47.360Z,6.75
2019-03-22T06:59:47.348Z,6.77
2019-03-22T07:00:47.345Z,7.00
2019-03-22T07:01:47.326Z,7.18
2019-03-22T07:02:47.315Z,7.26
2019-03-22T07:03:47.305Z,7.54
2019-03-22T07:04:47.294Z,7.90
2019-03-22T07:05:47.285Z,8.12
2019-03-22T07:06:47.273Z,8.23
2019-03-22T07:07:47.262Z,8.26
2019-03-22T07:08:47.253Z,8.30
2019-03-22T07:09:47.241Z,8.55
2019-03-22T07:10:47.230Z,8.88
2019-03-22T07:11:47.261Z,8.97
2019-03-22T07:12:47.207Z,9.11
2019-03-22T07:13:47.199Z,9.37
2019-03-22T07:14:47.230Z,9.48
2019-03-22T07:15:47.178Z,9.67
2019-03-22T07:16:47.178Z,9.64
2019-03-22T07:17:47.160Z,9.91
2019-03-22T07:18:47.145Z,10.01
2019-03-22T07:19:47.133Z,10.18
2019-03-22T07:20:47.122Z,10.36
2019-03-22T07:21:47.109Z,10.43
2019-03-22T07:22:47.106Z,10.50
2019-03-22T07:23:47.090Z,10.59
2019-03-22T07:24:47.080Z,10.51
2019-03-22T07:25:47.068Z,10.54
2019-03-22T07:26:47.059Z,10.64
2019-03-22T07:27:47.049Z,10.75
2019-03-22T07:28:47.039Z,10.77
2019-03-22T07:29:47.022Z,10.68
2019-03-22T07:30:47.012Z,10.64
2019-03-22T07:31:47.003Z,10.59
2019-03-22T07:32:47.033Z,10.46
2019-03-22T07:33:46.982Z,10.18
2019-03-22T07:34:46.970Z,9.85
2019-03-22T07:35:46.959Z,9.64
2019-03-22T07:36:47.242Z,9.23
2019-03-22T07:37:46.938Z,8.89
2019-03-22T07:38:46.927Z,8.64
2019-03-22T07:39:46.914Z,8.46
2019-03-22T07:40:46.904Z,8.35
2019-03-22T07:41:46.898Z,8.24
2019-03-22T07:42:46.881Z,8.13
2019-03-22T07:43:46.872Z,8.08
2019-03-22T07:44:46.861Z,8.02
2019-03-22T07:45:46.848Z,7.98
2019-03-22T07:46:46.838Z,7.95
2019-03-22T07:47:46.826Z,7.94
2019-03-22T07:48:46.816Z,7.99
2019-03-22T07:49:46.806Z,8.01
2019-03-22T07:50:46.793Z,8.05
2019-03-22T07:51:46.784Z,8.09
2019-03-22T07:52:46.774Z,8.13
2019-03-22T07:53:46.765Z,8.12
2019-03-22T07:54:46.749Z,8.17
2019-03-22T07:55:46.738Z,8.23
2019-03-22T07:56:46.729Z,8.23
2019-03-22T07:57:46.725Z,8.27
2019-03-22T07:58:46.707Z,8.31
2019-03-22T07:59:46.694Z,8.35
2019-03-22T08:00:46.686Z,8.39
2019-03-22T08:01:46.672Z,8.42
2019-03-22T08:02:46.665Z,8.45
2019-03-22T08:03:46.650Z,8.49
2019-03-22T08:04:46.642Z,8.58
2019-03-22T08:05:51.423Z,8.61
2019-03-22T08:06:46.617Z,8.58
2019-03-22T08:07:46.610Z,8.60
2019-03-22T08:08:46.599Z,8.64
2019-03-22T08:09:46.715Z,8.71
2019-03-22T08:10:46.692Z,8.78
2019-03-22T08:11:46.566Z,8.86
2019-03-22T08:12:46.555Z,8.96
2019-03-22T08:13:46.538Z,9.00
2019-03-22T08:14:46.552Z,9.11
2019-03-22T08:15:46.532Z,9.18
2019-03-22T08:16:46.557Z,9.26
2019-03-22T08:17:46.499Z,9.33
2019-03-22T08:18:46.497Z,9.34
2019-03-22T08:19:46.478Z,9.39
2019-03-22T08:20:46.461Z,9.43
2019-03-22T08:21:46.451Z,9.52
2019-03-22T08:22:46.470Z,9.58
2019-03-22T08:23:46.429Z,9.64
2019-03-22T08:24:46.415Z,9.70
2019-03-22T08:25:46.405Z,9.74
2019-03-22T08:26:46.407Z,9.80
2019-03-22T08:27:46.385Z,9.81
2019-03-22T08:28:46.373Z,9.83
2019-03-22T08:29:46.428Z,9.88
2019-03-22T08:30:46.398Z,9.95
2019-03-22T08:31:46.438Z,10.02
2019-03-22T08:32:46.330Z,10.09
2019-03-22T08:33:46.320Z,10.13
2019-03-22T08:34:47.759Z,10.22
2019-03-22T08:35:46.317Z,10.29
2019-03-22T08:36:46.324Z,10.38
2019-03-22T08:37:52.377Z,10.39
